sensor_id;sensor_type;location;lat;lon;timestamp;P1;durP1;ratioP1;P2;durP2;ratioP2
8480;SDS011;4277;51.354;6.740;2022-11-15T00:00:56;12.57;;;9.43;;
8480;SDS011;4277;51.354;6.740;2022-11-15T00:03:23;14.10;;;9.70;;
8480;SDS011;4277;51.354;6.740;2022-11-15T00:05:49;11.70;;;8.87;;
8480;SDS011;4277;51.354;6.740;2022-11-15T00:08:15;11.33;;;9.13;;
8480;SDS011;4277;51.354;6.740;2022-11-15T00:10:41;9.73;;;8.57;;
8480;SDS011;4277;51.354;6.740;2022-11-15T00:13:11;12.80;;;9.07;;
8480;SDS011;4277;51.354;6.740;2022-11-15T00:15:38;10.77;;;8.63;;
8480;SDS011;4277;51.354;6.740;2022-11-15T00:18:04;9.17;;;7.77;;
8480;SDS011;4277;51.354;6.740;2022-11-15T00:20:31;10.03;;;7.87;;
8480;SDS011;4277;51.354;6.740;2022-11-15T00:22:57;8.57;;;7.67;;
8480;SDS011;4277;51.354;6.740;2022-11-15T00:25:23;14.00;;;8.70;;
8480;SDS011;4277;51.354;6.740;2022-11-15T00:27:49;11.23;;;8.80;;
8480;SDS011;4277;51.354;6.740;2022-11-15T00:30:16;10.70;;;8.50;;
8480;SDS011;4277;51.354;6.740;2022-11-15T00:32:42;10.30;;;8.77;;
8480;SDS011;4277;51.354;6.740;2022-11-15T00:35:08;11.90;;;9.40;;
8480;SDS011;4277;51.354;6.740;2022-11-15T00:37:34;13.80;;;8.77;;
8480;SDS011;4277;51.354;6.740;2022-11-15T00:40:00;10.27;;;8.37;;
8480;SDS011;4277;51.354;6.740;2022-11-15T00:42:26;10.60;;;8.80;;
8480;SDS011;4277;51.354;6.740;2022-11-15T00:44:52;10.40;;;8.40;;
8480;SDS011;4277;51.354;6.740;2022-11-15T00:47:18;10.37;;;7.87;;
8480;SDS011;4277;51.354;6.740;2022-11-15T00:49:44;9.97;;;8.20;;
8480;SDS011;4277;51.354;6.740;2022-11-15T00:52:10;11.70;;;8.80;;
8480;SDS011;4277;51.354;6.740;2022-11-15T00:54:35;11.80;;;9.10;;
8480;SDS011;4277;51.354;6.740;2022-11-15T00:57:01;10.20;;;8.03;;
8480;SDS011;4277;51.354;6.740;2022-11-15T00:59:27;10.67;;;8.57;;
8480;SDS011;4277;51.354;6.740;2022-11-15T01:01:53;14.50;;;9.20;;
8480;SDS011;4277;51.354;6.740;2022-11-15T01:04:19;13.30;;;9.17;;
8480;SDS011;4277;51.354;6.740;2022-11-15T01:06:45;10.37;;;9.13;;
8480;SDS011;4277;51.354;6.740;2022-11-15T01:09:11;12.43;;;8.60;;
8480;SDS011;4277;51.354;6.740;2022-11-15T01:11:38;14.27;;;8.87;;
8480;SDS011;4277;51.354;6.740;2022-11-15T01:14:04;15.97;;;9.40;;
8480;SDS011;4277;51.354;6.740;2022-11-15T01:16:30;12.43;;;8.70;;
8480;SDS011;4277;51.354;6.740;2022-11-15T01:18:57;13.60;;;8.93;;
8480;SDS011;4277;51.354;6.740;2022-11-15T01:21:23;11.57;;;8.53;;
8480;SDS011;4277;51.354;6.740;2022-11-15T01:23:52;11.90;;;8.80;;
8480;SDS011;4277;51.354;6.740;2022-11-15T01:26:19;10.90;;;8.67;;
8480;SDS011;4277;51.354;6.740;2022-11-15T01:28:44;10.07;;;7.90;;
8480;SDS011;4277;51.354;6.740;2022-11-15T01:31:15;8.90;;;7.33;;
8480;SDS011;4277;51.354;6.740;2022-11-15T01:33:41;10.47;;;7.73;;
8480;SDS011;4277;51.354;6.740;2022-11-15T01:36:09;10.93;;;7.97;;
8480;SDS011;4277;51.354;6.740;2022-11-15T01:38:35;12.80;;;8.77;;
8480;SDS011;4277;51.354;6.740;2022-11-15T01:41:01;9.00;;;7.87;;
8480;SDS011;4277;51.354;6.740;2022-11-15T01:45:56;10.67;;;8.23;;
8480;SDS011;4277;51.354;6.740;2022-11-15T01:48:22;9.67;;;8.57;;
8480;SDS011;4277;51.354;6.740;2022-11-15T01:50:51;12.83;;;8.17;;
8480;SDS011;4277;51.354;6.740;2022-11-15T01:53:17;13.07;;;8.07;;
8480;SDS011;4277;51.354;6.740;2022-11-15T01:55:45;8.67;;;7.73;;
8480;SDS011;4277;51.354;6.740;2022-11-15T01:58:11;11.67;;;8.27;;
8480;SDS011;4277;51.354;6.740;2022-11-15T02:00:37;9.47;;;8.40;;
8480;SDS011;4277;51.354;6.740;2022-11-15T02:03:03;10.53;;;7.90;;
8480;SDS011;4277;51.354;6.740;2022-11-15T02:05:29;11.20;;;8.80;;
8480;SDS011;4277;51.354;6.740;2022-11-15T02:07:56;8.30;;;7.20;;
8480;SDS011;4277;51.354;6.740;2022-11-15T02:10:23;8.83;;;7.90;;
8480;SDS011;4277;51.354;6.740;2022-11-15T02:12:49;9.00;;;7.40;;
8480;SDS011;4277;51.354;6.740;2022-11-15T02:15:15;8.63;;;7.73;;
8480;SDS011;4277;51.354;6.740;2022-11-15T02:17:57;11.30;;;8.80;;
8480;SDS011;4277;51.354;6.740;2022-11-15T02:25:39;11.37;;;8.37;;
8480;SDS011;4277;51.354;6.740;2022-11-15T02:30:52;10.57;;;8.27;;
8480;SDS011;4277;51.354;6.740;2022-11-15T02:36:06;11.53;;;7.70;;
8480;SDS011;4277;51.354;6.740;2022-11-15T02:38:54;11.17;;;7.90;;
8480;SDS011;4277;51.354;6.740;2022-11-15T02:41:25;10.33;;;7.53;;
8480;SDS011;4277;51.354;6.740;2022-11-15T02:46:31;12.60;;;7.53;;
8480;SDS011;4277;51.354;6.740;2022-11-15T02:49:16;8.30;;;7.40;;
8480;SDS011;4277;51.354;6.740;2022-11-15T02:51:43;11.17;;;8.70;;
8480;SDS011;4277;51.354;6.740;2022-11-15T02:54:11;12.30;;;8.70;;
8480;SDS011;4277;51.354;6.740;2022-11-15T02:56:38;11.80;;;8.30;;
8480;SDS011;4277;51.354;6.740;2022-11-15T03:01:50;9.83;;;8.10;;
8480;SDS011;4277;51.354;6.740;2022-11-15T03:06:49;11.67;;;8.80;;
8480;SDS011;4277;51.354;6.740;2022-11-15T03:09:40;13.70;;;8.80;;
8480;SDS011;4277;51.354;6.740;2022-11-15T03:12:05;12.43;;;9.27;;
8480;SDS011;4277;51.354;6.740;2022-11-15T03:14:37;10.70;;;8.50;;
8480;SDS011;4277;51.354;6.740;2022-11-15T03:19:55;11.77;;;9.00;;
8480;SDS011;4277;51.354;6.740;2022-11-15T03:22:23;11.73;;;8.37;;
8480;SDS011;4277;51.354;6.740;2022-11-15T03:24:53;9.60;;;8.27;;
8480;SDS011;4277;51.354;6.740;2022-11-15T03:27:21;9.03;;;8.13;;
8480;SDS011;4277;51.354;6.740;2022-11-15T03:29:52;11.97;;;8.73;;
8480;SDS011;4277;51.354;6.740;2022-11-15T03:32:22;12.07;;;8.47;;
8480;SDS011;4277;51.354;6.740;2022-11-15T03:34:50;11.50;;;8.07;;
8480;SDS011;4277;51.354;6.740;2022-11-15T03:37:17;11.43;;;7.63;;
8480;SDS011;4277;51.354;6.740;2022-11-15T03:39:46;9.83;;;7.70;;
8480;SDS011;4277;51.354;6.740;2022-11-15T03:42:18;10.37;;;8.17;;
8480;SDS011;4277;51.354;6.740;2022-11-15T03:47:44;7.40;;;6.70;;
8480;SDS011;4277;51.354;6.740;2022-11-15T03:50:13;10.27;;;7.23;;
8480;SDS011;4277;51.354;6.740;2022-11-15T03:52:40;7.97;;;7.17;;
8480;SDS011;4277;51.354;6.740;2022-11-15T03:55:08;10.13;;;7.47;;
8480;SDS011;4277;51.354;6.740;2022-11-15T03:57:36;12.40;;;7.63;;
8480;SDS011;4277;51.354;6.740;2022-11-15T04:00:03;8.27;;;7.17;;
8480;SDS011;4277;51.354;6.740;2022-11-15T04:02:29;8.03;;;6.50;;
8480;SDS011;4277;51.354;6.740;2022-11-15T04:04:55;11.00;;;7.87;;
8480;SDS011;4277;51.354;6.740;2022-11-15T04:07:21;9.70;;;7.77;;
8480;SDS011;4277;51.354;6.740;2022-11-15T04:09:47;10.33;;;7.40;;
8480;SDS011;4277;51.354;6.740;2022-11-15T04:12:28;9.43;;;6.93;;
8480;SDS011;4277;51.354;6.740;2022-11-15T04:15:05;9.43;;;7.20;;
8480;SDS011;4277;51.354;6.740;2022-11-15T04:20:21;8.33;;;7.07;;
8480;SDS011;4277;51.354;6.740;2022-11-15T04:23:11;7.67;;;6.80;;
8480;SDS011;4277;51.354;6.740;2022-11-15T04:25:56;9.40;;;6.90;;
8480;SDS011;4277;51.354;6.740;2022-11-15T04:28:24;7.73;;;6.63;;
8480;SDS011;4277;51.354;6.740;2022-11-15T04:30:50;8.80;;;7.03;;
8480;SDS011;4277;51.354;6.740;2022-11-15T04:33:16;8.83;;;6.90;;
8480;SDS011;4277;51.354;6.740;2022-11-15T04:35:42;9.10;;;6.60;;
8480;SDS011;4277;51.354;6.740;2022-11-15T04:38:08;9.70;;;7.10;;
8480;SDS011;4277;51.354;6.740;2022-11-15T04:40:35;8.73;;;6.50;;
8480;SDS011;4277;51.354;6.740;2022-11-15T04:43:01;13.27;;;6.87;;
8480;SDS011;4277;51.354;6.740;2022-11-15T04:45:27;7.77;;;6.20;;
8480;SDS011;4277;51.354;6.740;2022-11-15T04:47:53;8.87;;;6.30;;
8480;SDS011;4277;51.354;6.740;2022-11-15T04:50:19;10.20;;;6.83;;
8480;SDS011;4277;51.354;6.740;2022-11-15T04:52:50;6.83;;;5.53;;
8480;SDS011;4277;51.354;6.740;2022-11-15T04:55:16;6.83;;;5.63;;
8480;SDS011;4277;51.354;6.740;2022-11-15T04:57:42;7.47;;;5.50;;
8480;SDS011;4277;51.354;6.740;2022-11-15T05:00:10;8.40;;;6.00;;
8480;SDS011;4277;51.354;6.740;2022-11-15T05:02:36;6.30;;;5.60;;
8480;SDS011;4277;51.354;6.740;2022-11-15T05:05:21;7.40;;;6.07;;
8480;SDS011;4277;51.354;6.740;2022-11-15T05:07:47;7.27;;;5.97;;
8480;SDS011;4277;51.354;6.740;2022-11-15T05:10:13;7.43;;;5.97;;
8480;SDS011;4277;51.354;6.740;2022-11-15T05:12:39;6.43;;;5.80;;
8480;SDS011;4277;51.354;6.740;2022-11-15T05:15:05;6.50;;;5.63;;
8480;SDS011;4277;51.354;6.740;2022-11-15T05:17:31;7.00;;;5.73;;
8480;SDS011;4277;51.354;6.740;2022-11-15T05:19:57;7.97;;;5.93;;
8480;SDS011;4277;51.354;6.740;2022-11-15T05:22:23;8.10;;;6.00;;
8480;SDS011;4277;51.354;6.740;2022-11-15T05:24:49;11.10;;;6.33;;
8480;SDS011;4277;51.354;6.740;2022-11-15T05:27:15;7.03;;;5.53;;
8480;SDS011;4277;51.354;6.740;2022-11-15T05:29:41;6.80;;;5.60;;
8480;SDS011;4277;51.354;6.740;2022-11-15T05:32:06;7.03;;;6.30;;
8480;SDS011;4277;51.354;6.740;2022-11-15T05:34:34;7.33;;;5.97;;
8480;SDS011;4277;51.354;6.740;2022-11-15T05:37:00;6.93;;;5.70;;
8480;SDS011;4277;51.354;6.740;2022-11-15T05:39:26;7.03;;;6.33;;
8480;SDS011;4277;51.354;6.740;2022-11-15T05:41:53;6.90;;;6.10;;
8480;SDS011;4277;51.354;6.740;2022-11-15T05:44:21;6.80;;;6.20;;
8480;SDS011;4277;51.354;6.740;2022-11-15T05:46:48;6.27;;;5.67;;
8480;SDS011;4277;51.354;6.740;2022-11-15T05:49:15;7.20;;;6.33;;
8480;SDS011;4277;51.354;6.740;2022-11-15T05:51:43;7.50;;;6.80;;
8480;SDS011;4277;51.354;6.740;2022-11-15T05:54:10;9.80;;;7.20;;
8480;SDS011;4277;51.354;6.740;2022-11-15T05:56:36;11.30;;;6.57;;
8480;SDS011;4277;51.354;6.740;2022-11-15T05:59:02;8.57;;;6.80;;
8480;SDS011;4277;51.354;6.740;2022-11-15T06:01:28;7.10;;;6.00;;
8480;SDS011;4277;51.354;6.740;2022-11-15T06:03:55;9.10;;;6.40;;
8480;SDS011;4277;51.354;6.740;2022-11-15T06:06:21;7.40;;;6.70;;
8480;SDS011;4277;51.354;6.740;2022-11-15T06:08:47;9.03;;;6.63;;
8480;SDS011;4277;51.354;6.740;2022-11-15T06:11:13;7.37;;;6.60;;
8480;SDS011;4277;51.354;6.740;2022-11-15T06:13:39;7.43;;;6.73;;
8480;SDS011;4277;51.354;6.740;2022-11-15T06:16:05;9.80;;;7.43;;
8480;SDS011;4277;51.354;6.740;2022-11-15T06:18:32;8.97;;;7.47;;
8480;SDS011;4277;51.354;6.740;2022-11-15T06:20:59;8.87;;;6.83;;
8480;SDS011;4277;51.354;6.740;2022-11-15T06:23:25;9.83;;;7.10;;
8480;SDS011;4277;51.354;6.740;2022-11-15T06:25:51;7.70;;;6.90;;
8480;SDS011;4277;51.354;6.740;2022-11-15T06:28:17;6.87;;;6.10;;
8480;SDS011;4277;51.354;6.740;2022-11-15T06:30:43;7.33;;;5.87;;
8480;SDS011;4277;51.354;6.740;2022-11-15T06:33:09;7.07;;;6.20;;
8480;SDS011;4277;51.354;6.740;2022-11-15T06:35:35;7.37;;;6.30;;
8480;SDS011;4277;51.354;6.740;2022-11-15T06:38:02;8.80;;;5.47;;
8480;SDS011;4277;51.354;6.740;2022-11-15T06:40:28;7.97;;;5.40;;
8480;SDS011;4277;51.354;6.740;2022-11-15T06:42:57;7.20;;;5.30;;
8480;SDS011;4277;51.354;6.740;2022-11-15T06:45:24;7.07;;;6.10;;
8480;SDS011;4277;51.354;6.740;2022-11-15T06:47:50;6.63;;;5.90;;
8480;SDS011;4277;51.354;6.740;2022-11-15T06:50:16;6.67;;;5.23;;
8480;SDS011;4277;51.354;6.740;2022-11-15T06:52:42;6.50;;;5.60;;
8480;SDS011;4277;51.354;6.740;2022-11-15T06:55:08;6.20;;;5.57;;
8480;SDS011;4277;51.354;6.740;2022-11-15T06:57:34;6.50;;;5.80;;
8480;SDS011;4277;51.354;6.740;2022-11-15T07:00:00;6.87;;;5.40;;
8480;SDS011;4277;51.354;6.740;2022-11-15T07:02:27;5.77;;;5.27;;
8480;SDS011;4277;51.354;6.740;2022-11-15T07:04:53;6.67;;;5.40;;
8480;SDS011;4277;51.354;6.740;2022-11-15T07:07:18;5.20;;;4.70;;
8480;SDS011;4277;51.354;6.740;2022-11-15T07:09:44;6.33;;;5.13;;
8480;SDS011;4277;51.354;6.740;2022-11-15T07:12:10;5.77;;;5.17;;
8480;SDS011;4277;51.354;6.740;2022-11-15T07:14:36;5.30;;;4.80;;
8480;SDS011;4277;51.354;6.740;2022-11-15T07:17:03;4.87;;;4.37;;
8480;SDS011;4277;51.354;6.740;2022-11-15T07:19:29;5.60;;;4.27;;
8480;SDS011;4277;51.354;6.740;2022-11-15T07:21:55;5.00;;;3.83;;
8480;SDS011;4277;51.354;6.740;2022-11-15T07:24:21;4.00;;;3.70;;
8480;SDS011;4277;51.354;6.740;2022-11-15T07:26:47;5.37;;;3.50;;
8480;SDS011;4277;51.354;6.740;2022-11-15T07:29:13;3.67;;;3.37;;
8480;SDS011;4277;51.354;6.740;2022-11-15T07:31:39;4.30;;;3.43;;
8480;SDS011;4277;51.354;6.740;2022-11-15T07:34:05;4.90;;;4.00;;
8480;SDS011;4277;51.354;6.740;2022-11-15T07:36:31;3.87;;;3.47;;
8480;SDS011;4277;51.354;6.740;2022-11-15T07:38:57;4.50;;;3.70;;
8480;SDS011;4277;51.354;6.740;2022-11-15T07:41:23;5.20;;;3.70;;
8480;SDS011;4277;51.354;6.740;2022-11-15T07:43:51;3.60;;;3.30;;
8480;SDS011;4277;51.354;6.740;2022-11-15T07:46:17;3.90;;;3.40;;
8480;SDS011;4277;51.354;6.740;2022-11-15T07:48:43;3.37;;;2.77;;
8480;SDS011;4277;51.354;6.740;2022-11-15T07:51:12;1.73;;;1.50;;
8480;SDS011;4277;51.354;6.740;2022-11-15T07:53:39;0.80;;;0.77;;
8480;SDS011;4277;51.354;6.740;2022-11-15T07:56:06;1.97;;;0.80;;
8480;SDS011;4277;51.354;6.740;2022-11-15T07:58:32;0.73;;;0.70;;
8480;SDS011;4277;51.354;6.740;2022-11-15T08:00:58;1.60;;;0.90;;
8480;SDS011;4277;51.354;6.740;2022-11-15T08:03:24;1.37;;;0.60;;
8480;SDS011;4277;51.354;6.740;2022-11-15T08:05:50;1.03;;;0.70;;
8480;SDS011;4277;51.354;6.740;2022-11-15T08:08:17;1.73;;;0.60;;
8480;SDS011;4277;51.354;6.740;2022-11-15T08:10:43;0.87;;;0.60;;
8480;SDS011;4277;51.354;6.740;2022-11-15T08:13:10;1.87;;;0.73;;
8480;SDS011;4277;51.354;6.740;2022-11-15T08:15:36;1.13;;;0.73;;
8480;SDS011;4277;51.354;6.740;2022-11-15T08:18:06;1.03;;;0.57;;
8480;SDS011;4277;51.354;6.740;2022-11-15T08:20:32;0.87;;;0.80;;
8480;SDS011;4277;51.354;6.740;2022-11-15T08:22:59;1.20;;;0.60;;
8480;SDS011;4277;51.354;6.740;2022-11-15T08:25:26;2.30;;;0.73;;
8480;SDS011;4277;51.354;6.740;2022-11-15T08:27:53;1.63;;;0.70;;
8480;SDS011;4277;51.354;6.740;2022-11-15T08:30:19;1.17;;;0.90;;
8480;SDS011;4277;51.354;6.740;2022-11-15T08:32:45;0.93;;;0.83;;
8480;SDS011;4277;51.354;6.740;2022-11-15T08:35:11;0.90;;;0.70;;
8480;SDS011;4277;51.354;6.740;2022-11-15T08:37:37;3.70;;;0.90;;
8480;SDS011;4277;51.354;6.740;2022-11-15T08:40:04;1.87;;;0.83;;
8480;SDS011;4277;51.354;6.740;2022-11-15T08:42:30;2.00;;;1.40;;
8480;SDS011;4277;51.354;6.740;2022-11-15T08:44:56;1.83;;;1.33;;
8480;SDS011;4277;51.354;6.740;2022-11-15T08:47:22;2.00;;;1.30;;
8480;SDS011;4277;51.354;6.740;2022-11-15T08:49:48;2.17;;;1.30;;
8480;SDS011;4277;51.354;6.740;2022-11-15T08:52:14;3.63;;;1.63;;
8480;SDS011;4277;51.354;6.740;2022-11-15T08:54:40;2.50;;;1.60;;
8480;SDS011;4277;51.354;6.740;2022-11-15T08:57:06;3.03;;;1.70;;
8480;SDS011;4277;51.354;6.740;2022-11-15T08:59:34;2.37;;;1.70;;
8480;SDS011;4277;51.354;6.740;2022-11-15T09:02:00;1.97;;;1.63;;
8480;SDS011;4277;51.354;6.740;2022-11-15T09:04:26;2.63;;;1.60;;
8480;SDS011;4277;51.354;6.740;2022-11-15T09:06:52;2.10;;;1.63;;
8480;SDS011;4277;51.354;6.740;2022-11-15T09:09:18;2.13;;;1.83;;
8480;SDS011;4277;51.354;6.740;2022-11-15T09:11:44;2.93;;;1.90;;
8480;SDS011;4277;51.354;6.740;2022-11-15T09:14:11;3.37;;;2.20;;
8480;SDS011;4277;51.354;6.740;2022-11-15T09:16:37;4.57;;;2.10;;
8480;SDS011;4277;51.354;6.740;2022-11-15T09:19:04;3.37;;;2.57;;
8480;SDS011;4277;51.354;6.740;2022-11-15T09:21:30;3.33;;;2.70;;
8480;SDS011;4277;51.354;6.740;2022-11-15T09:23:56;3.97;;;2.50;;
8480;SDS011;4277;51.354;6.740;2022-11-15T09:26:22;6.73;;;2.37;;
8480;SDS011;4277;51.354;6.740;2022-11-15T09:28:48;3.97;;;2.80;;
8480;SDS011;4277;51.354;6.740;2022-11-15T09:31:14;4.73;;;2.77;;
8480;SDS011;4277;51.354;6.740;2022-11-15T09:33:40;2.67;;;2.47;;
8480;SDS011;4277;51.354;6.740;2022-11-15T09:36:08;5.00;;;2.73;;
8480;SDS011;4277;51.354;6.740;2022-11-15T09:38:34;3.93;;;2.47;;
8480;SDS011;4277;51.354;6.740;2022-11-15T09:41:08;2.50;;;2.10;;
8480;SDS011;4277;51.354;6.740;2022-11-15T09:51:03;2.97;;;1.70;;
8480;SDS011;4277;51.354;6.740;2022-11-15T09:53:56;2.37;;;1.80;;
8480;SDS011;4277;51.354;6.740;2022-11-15T09:56:25;3.60;;;1.80;;
8480;SDS011;4277;51.354;6.740;2022-11-15T09:58:59;4.07;;;1.43;;
8480;SDS011;4277;51.354;6.740;2022-11-15T10:01:34;4.90;;;1.60;;
8480;SDS011;4277;51.354;6.740;2022-11-15T10:04:02;1.90;;;1.37;;
8480;SDS011;4277;51.354;6.740;2022-11-15T10:06:28;2.70;;;1.53;;
8480;SDS011;4277;51.354;6.740;2022-11-15T10:09:15;3.07;;;1.30;;
8480;SDS011;4277;51.354;6.740;2022-11-15T10:11:42;3.67;;;1.40;;
8480;SDS011;4277;51.354;6.740;2022-11-15T10:14:10;1.87;;;1.23;;
8480;SDS011;4277;51.354;6.740;2022-11-15T10:24:18;2.60;;;1.30;;
8480;SDS011;4277;51.354;6.740;2022-11-15T10:26:47;1.90;;;1.27;;
8480;SDS011;4277;51.354;6.740;2022-11-15T10:29:23;2.17;;;1.10;;
8480;SDS011;4277;51.354;6.740;2022-11-15T10:31:50;1.80;;;1.07;;
8480;SDS011;4277;51.354;6.740;2022-11-15T10:34:17;2.40;;;0.83;;
8480;SDS011;4277;51.354;6.740;2022-11-15T10:36:54;1.63;;;1.00;;
8480;SDS011;4277;51.354;6.740;2022-11-15T10:39:21;2.13;;;1.30;;
8480;SDS011;4277;51.354;6.740;2022-11-15T10:41:46;2.80;;;1.10;;
8480;SDS011;4277;51.354;6.740;2022-11-15T10:46:40;2.57;;;1.10;;
8480;SDS011;4277;51.354;6.740;2022-11-15T10:49:25;4.27;;;1.20;;
8480;SDS011;4277;51.354;6.740;2022-11-15T10:51:55;2.83;;;1.00;;
8480;SDS011;4277;51.354;6.740;2022-11-15T10:54:28;2.10;;;0.87;;
8480;SDS011;4277;51.354;6.740;2022-11-15T10:56:55;2.37;;;1.07;;
8480;SDS011;4277;51.354;6.740;2022-11-15T10:59:23;2.03;;;1.00;;
8480;SDS011;4277;51.354;6.740;2022-11-15T11:01:50;1.80;;;1.10;;
8480;SDS011;4277;51.354;6.740;2022-11-15T11:04:16;2.00;;;1.20;;
8480;SDS011;4277;51.354;6.740;2022-11-15T11:06:50;1.63;;;0.90;;
8480;SDS011;4277;51.354;6.740;2022-11-15T11:09:31;2.10;;;1.10;;
8480;SDS011;4277;51.354;6.740;2022-11-15T11:11:57;3.87;;;1.40;;
8480;SDS011;4277;51.354;6.740;2022-11-15T11:14:24;3.13;;;1.03;;
8480;SDS011;4277;51.354;6.740;2022-11-15T11:16:57;2.23;;;0.90;;
8480;SDS011;4277;51.354;6.740;2022-11-15T11:19:34;1.70;;;1.00;;
8480;SDS011;4277;51.354;6.740;2022-11-15T11:22:05;1.87;;;0.93;;
8480;SDS011;4277;51.354;6.740;2022-11-15T11:24:45;2.97;;;1.10;;
8480;SDS011;4277;51.354;6.740;2022-11-15T11:38:15;2.20;;;0.97;;
8480;SDS011;4277;51.354;6.740;2022-11-15T11:40:44;1.73;;;0.80;;
8480;SDS011;4277;51.354;6.740;2022-11-15T11:43:28;1.17;;;1.00;;
8480;SDS011;4277;51.354;6.740;2022-11-15T11:46:09;1.80;;;0.90;;
8480;SDS011;4277;51.354;6.740;2022-11-15T11:51:11;2.03;;;0.70;;
8480;SDS011;4277;51.354;6.740;2022-11-15T11:53:39;2.50;;;0.90;;
8480;SDS011;4277;51.354;6.740;2022-11-15T11:56:11;4.90;;;1.20;;
8480;SDS011;4277;51.354;6.740;2022-11-15T11:58:42;0.87;;;0.60;;
8480;SDS011;4277;51.354;6.740;2022-11-15T12:03:41;2.23;;;0.77;;
8480;SDS011;4277;51.354;6.740;2022-11-15T12:13:32;2.10;;;0.80;;
8480;SDS011;4277;51.354;6.740;2022-11-15T12:18:40;3.90;;;0.70;;
8480;SDS011;4277;51.354;6.740;2022-11-15T12:21:13;1.97;;;0.73;;
8480;SDS011;4277;51.354;6.740;2022-11-15T12:23:44;2.17;;;0.50;;
8480;SDS011;4277;51.354;6.740;2022-11-15T12:26:15;2.17;;;0.67;;
8480;SDS011;4277;51.354;6.740;2022-11-15T12:29:04;2.17;;;0.80;;
8480;SDS011;4277;51.354;6.740;2022-11-15T12:31:32;4.53;;;0.60;;
8480;SDS011;4277;51.354;6.740;2022-11-15T12:34:01;3.87;;;0.63;;
8480;SDS011;4277;51.354;6.740;2022-11-15T12:38:58;4.57;;;0.90;;
8480;SDS011;4277;51.354;6.740;2022-11-15T12:41:32;1.93;;;0.80;;
8480;SDS011;4277;51.354;6.740;2022-11-15T12:43:58;3.63;;;0.70;;
8480;SDS011;4277;51.354;6.740;2022-11-15T12:48:57;1.43;;;0.60;;
8480;SDS011;4277;51.354;6.740;2022-11-15T12:52:09;3.70;;;0.80;;
8480;SDS011;4277;51.354;6.740;2022-11-15T13:02:22;3.80;;;0.90;;
8480;SDS011;4277;51.354;6.740;2022-11-15T13:04:50;5.37;;;1.10;;
8480;SDS011;4277;51.354;6.740;2022-11-15T13:17:46;1.93;;;0.60;;
8480;SDS011;4277;51.354;6.740;2022-11-15T13:27:51;2.67;;;0.80;;
8480;SDS011;4277;51.354;6.740;2022-11-15T13:30:29;3.10;;;0.70;;
8480;SDS011;4277;51.354;6.740;2022-11-15T13:32:55;1.67;;;0.63;;
8480;SDS011;4277;51.354;6.740;2022-11-15T13:35:28;3.70;;;0.90;;
8480;SDS011;4277;51.354;6.740;2022-11-15T13:37:55;4.57;;;1.03;;
8480;SDS011;4277;51.354;6.740;2022-11-15T13:42:47;3.70;;;1.10;;
8480;SDS011;4277;51.354;6.740;2022-11-15T13:45:14;2.00;;;0.90;;
8480;SDS011;4277;51.354;6.740;2022-11-15T13:47:41;4.73;;;1.20;;
8480;SDS011;4277;51.354;6.740;2022-11-15T13:50:10;3.07;;;0.80;;
8480;SDS011;4277;51.354;6.740;2022-11-15T13:52:36;2.23;;;0.80;;
8480;SDS011;4277;51.354;6.740;2022-11-15T13:55:08;4.63;;;0.87;;
8480;SDS011;4277;51.354;6.740;2022-11-15T14:00:03;3.60;;;0.97;;
8480;SDS011;4277;51.354;6.740;2022-11-15T14:02:33;3.47;;;0.83;;
8480;SDS011;4277;51.354;6.740;2022-11-15T14:05:00;2.07;;;1.00;;
8480;SDS011;4277;51.354;6.740;2022-11-15T14:07:27;3.43;;;0.80;;
8480;SDS011;4277;51.354;6.740;2022-11-15T14:09:53;1.48;;;0.75;;
8480;SDS011;4277;51.354;6.740;2022-11-15T14:12:27;1.70;;;0.70;;
8480;SDS011;4277;51.354;6.740;2022-11-15T14:14:54;3.07;;;1.07;;
8480;SDS011;4277;51.354;6.740;2022-11-15T14:19:56;2.50;;;0.70;;
8480;SDS011;4277;51.354;6.740;2022-11-15T14:22:22;4.53;;;0.90;;
8480;SDS011;4277;51.354;6.740;2022-11-15T14:25:04;1.53;;;0.80;;
8480;SDS011;4277;51.354;6.740;2022-11-15T14:27:31;2.63;;;0.90;;
8480;SDS011;4277;51.354;6.740;2022-11-15T14:29:57;1.27;;;0.67;;
8480;SDS011;4277;51.354;6.740;2022-11-15T14:32:24;3.13;;;0.97;;
8480;SDS011;4277;51.354;6.740;2022-11-15T14:35:09;3.23;;;1.10;;
8480;SDS011;4277;51.354;6.740;2022-11-15T14:37:37;2.17;;;0.80;;
8480;SDS011;4277;51.354;6.740;2022-11-15T14:40:04;1.70;;;0.97;;
8480;SDS011;4277;51.354;6.740;2022-11-15T14:42:30;1.83;;;0.90;;
8480;SDS011;4277;51.354;6.740;2022-11-15T14:44:56;3.03;;;1.00;;
8480;SDS011;4277;51.354;6.740;2022-11-15T14:47:23;5.10;;;0.90;;
8480;SDS011;4277;51.354;6.740;2022-11-15T14:49:49;2.77;;;0.93;;
8480;SDS011;4277;51.354;6.740;2022-11-15T14:52:25;3.03;;;1.00;;
8480;SDS011;4277;51.354;6.740;2022-11-15T14:54:52;2.57;;;1.10;;
8480;SDS011;4277;51.354;6.740;2022-11-15T14:57:18;2.03;;;1.30;;
8480;SDS011;4277;51.354;6.740;2022-11-15T14:59:44;4.00;;;1.40;;
8480;SDS011;4277;51.354;6.740;2022-11-15T15:02:28;4.27;;;1.40;;
8480;SDS011;4277;51.354;6.740;2022-11-15T15:04:54;1.90;;;1.40;;
8480;SDS011;4277;51.354;6.740;2022-11-15T15:07:22;2.97;;;1.50;;
8480;SDS011;4277;51.354;6.740;2022-11-15T15:09:48;5.67;;;1.40;;
8480;SDS011;4277;51.354;6.740;2022-11-15T15:12:17;4.63;;;1.53;;
8480;SDS011;4277;51.354;6.740;2022-11-15T15:14:44;2.50;;;1.47;;
8480;SDS011;4277;51.354;6.740;2022-11-15T15:17:10;4.30;;;1.50;;
8480;SDS011;4277;51.354;6.740;2022-11-15T15:19:36;3.00;;;1.80;;
8480;SDS011;4277;51.354;6.740;2022-11-15T15:22:02;2.53;;;1.57;;
8480;SDS011;4277;51.354;6.740;2022-11-15T15:24:28;3.37;;;1.70;;
8480;SDS011;4277;51.354;6.740;2022-11-15T15:26:54;2.87;;;1.57;;
8480;SDS011;4277;51.354;6.740;2022-11-15T15:29:20;2.57;;;1.50;;
8480;SDS011;4277;51.354;6.740;2022-11-15T15:31:46;2.80;;;1.63;;
8480;SDS011;4277;51.354;6.740;2022-11-15T15:34:12;2.57;;;1.90;;
8480;SDS011;4277;51.354;6.740;2022-11-15T15:36:38;3.77;;;1.70;;
8480;SDS011;4277;51.354;6.740;2022-11-15T15:39:04;2.90;;;1.80;;
8480;SDS011;4277;51.354;6.740;2022-11-15T15:41:30;3.50;;;1.80;;
8480;SDS011;4277;51.354;6.740;2022-11-15T15:43:56;4.07;;;1.80;;
8480;SDS011;4277;51.354;6.740;2022-11-15T15:46:21;2.10;;;1.37;;
8480;SDS011;4277;51.354;6.740;2022-11-15T15:48:47;2.47;;;1.50;;
8480;SDS011;4277;51.354;6.740;2022-11-15T15:51:13;3.57;;;1.70;;
8480;SDS011;4277;51.354;6.740;2022-11-15T15:53:39;5.00;;;1.87;;
8480;SDS011;4277;51.354;6.740;2022-11-15T15:56:05;2.10;;;1.50;;
8480;SDS011;4277;51.354;6.740;2022-11-15T15:58:33;3.37;;;1.60;;
8480;SDS011;4277;51.354;6.740;2022-11-15T16:00:59;4.33;;;1.90;;
8480;SDS011;4277;51.354;6.740;2022-11-15T16:03:25;4.07;;;1.80;;
8480;SDS011;4277;51.354;6.740;2022-11-15T16:05:52;2.67;;;1.70;;
8480;SDS011;4277;51.354;6.740;2022-11-15T16:08:19;4.23;;;1.83;;
8480;SDS011;4277;51.354;6.740;2022-11-15T16:10:45;3.00;;;1.70;;
8480;SDS011;4277;51.354;6.740;2022-11-15T16:13:11;2.20;;;1.50;;
8480;SDS011;4277;51.354;6.740;2022-11-15T16:15:37;2.33;;;1.70;;
8480;SDS011;4277;51.354;6.740;2022-11-15T16:18:03;4.80;;;1.73;;
8480;SDS011;4277;51.354;6.740;2022-11-15T16:20:31;2.40;;;1.67;;
8480;SDS011;4277;51.354;6.740;2022-11-15T16:22:58;2.60;;;1.50;;
8480;SDS011;4277;51.354;6.740;2022-11-15T16:25:24;3.03;;;1.70;;
8480;SDS011;4277;51.354;6.740;2022-11-15T16:27:50;3.77;;;1.80;;
8480;SDS011;4277;51.354;6.740;2022-11-15T16:30:18;1.47;;;1.37;;
8480;SDS011;4277;51.354;6.740;2022-11-15T16:32:44;3.03;;;1.60;;
8480;SDS011;4277;51.354;6.740;2022-11-15T16:35:10;1.87;;;1.40;;
8480;SDS011;4277;51.354;6.740;2022-11-15T16:37:40;1.83;;;1.50;;
8480;SDS011;4277;51.354;6.740;2022-11-15T16:40:48;1.80;;;1.70;;
8480;SDS011;4277;51.354;6.740;2022-11-15T16:42:55;2.33;;;1.60;;
8480;SDS011;4277;51.354;6.740;2022-11-15T16:45:22;1.93;;;1.50;;
8480;SDS011;4277;51.354;6.740;2022-11-15T16:47:48;2.53;;;1.60;;
8480;SDS011;4277;51.354;6.740;2022-11-15T16:50:18;2.13;;;1.50;;
8480;SDS011;4277;51.354;6.740;2022-11-15T16:52:48;2.90;;;1.57;;
8480;SDS011;4277;51.354;6.740;2022-11-15T16:55:14;3.77;;;1.60;;
8480;SDS011;4277;51.354;6.740;2022-11-15T16:57:40;3.77;;;1.60;;
8480;SDS011;4277;51.354;6.740;2022-11-15T17:00:07;2.00;;;1.70;;
8480;SDS011;4277;51.354;6.740;2022-11-15T17:02:33;1.73;;;1.63;;
8480;SDS011;4277;51.354;6.740;2022-11-15T17:04:59;2.30;;;1.70;;
8480;SDS011;4277;51.354;6.740;2022-11-15T17:07:25;2.27;;;1.63;;
8480;SDS011;4277;51.354;6.740;2022-11-15T17:09:51;2.27;;;1.40;;